Time;durP1;ratioP1;P1;durP2;ratioP2;P2;SDS_P1;SDS_P2;PMS_P1;PMS_P2;Temp;Humidity;BMP_temperature;BMP_pressure;BME280_temperature;BME280_humidity;BME280_pressure;Samples;Min_cycle;Max_cycle;Signal;HPM_P1;HPM_P2
2023/10/05 00:01:05;;;;;;;7.60;7.05;;;;;;;;;;4166078;28;20045;-66
2023/10/05 00:03:08;;;;;;;7.10;6.70;;;;;;;;;;4166330;28;20136;-66
2023/10/05 00:05:10;;;;;;;7.75;7.32;;;;;;;;;;4166447;28;20053;-66
2023/10/05 00:07:19;;;;;;;7.40;7.18;;;;;;;;;;4166725;28;20045;-66
2023/10/05 00:09:24;;;;;;;7.70;7.30;;;;;;;;;;4166377;28;20053;-66
2023/10/05 00:11:29;;;;;;;7.32;6.60;;;;;;;;;;4151351;28;20391;-66
2023/10/05 00:13:32;;;;;;;7.65;7.28;;;;;;;;;;4149829;28;20066;-65
2023/10/05 00:15:37;;;;;;;6.78;6.57;;;;;;;;;;4150058;28;20096;-66
2023/10/05 00:17:38;;;;;;;6.80;6.60;;;;;;;;;;4149861;28;20044;-66
2023/10/05 00:19:41;;;;;;;7.88;7.38;;;;;;;;;;4149759;28;20413;-66
2023/10/05 00:21:56;;;;;;;7.65;7.43;;;;;;;;;;4149807;28;20046;-66
2023/10/05 00:24:00;;;;;;;7.18;6.78;;;;;;;;;;4149778;28;20503;-66
2023/10/05 00:26:02;;;;;;;6.35;6.15;;;;;;;;;;4149729;28;20042;-65
2023/10/05 00:28:10;;;;;;;8.13;7.53;;;;;;;;;;4149899;28;20048;-66
2023/10/05 00:30:14;;;;;;;6.60;6.50;;;;;;;;;;4149641;28;20050;-67
2023/10/05 00:32:15;;;;;;;6.75;6.30;;;;;;;;;;4149767;28;20566;-66
2023/10/05 00:36:24;;;;;;;7.28;6.95;;;;;;;;;;4136395;28;20054;-67
2023/10/05 00:38:29;;;;;;;8.13;7.50;;;;;;;;;;4133458;28;20042;-65
2023/10/05 00:40:37;;;;;;;7.53;7.10;;;;;;;;;;4133552;28;20038;-66
2023/10/05 00:42:39;;;;;;;7.47;7.18;;;;;;;;;;4133394;28;20494;-66
2023/10/05 00:44:42;;;;;;;7.65;7.20;;;;;;;;;;4144765;28;20037;-66
2023/10/05 00:46:43;;;;;;;;;;;;;;;;;;4133684;28;20042;-66
2023/10/05 00:49:00;;;;;;;7.93;7.38;;;;;;;;;;4133273;28;19926;-66
2023/10/05 00:51:54;;;;;;;7.28;6.97;;;;;;;;;;4133423;28;20372;-66
2023/10/05 00:53:28;;;;;;;6.53;6.05;;;;;;;;;;4130166;28;20062;-67
2023/10/05 00:55:30;;;;;;;8.95;7.63;;;;;;;;;;4149660;28;20463;-67
2023/10/05 00:57:33;;;;;;;6.07;5.88;;;;;;;;;;4164883;28;20441;-66
2023/10/05 00:59:36;;;;;;;7.43;7.13;;;;;;;;;;4165386;28;20462;-66
2023/10/05 01:06:25;;;;;;;7.15;6.85;;;;;;;;;;4177599;28;20382;-66
2023/10/05 01:08:31;;;;;;;6.90;6.60;;;;;;;;;;4149303;28;20053;-66
2023/10/05 01:10:48;;;;;;;6.70;6.50;;;;;;;;;;4148923;28;20049;-66
2023/10/05 01:12:50;;;;;;;7.13;6.93;;;;;;;;;;4149042;28;20037;-66
2023/10/05 01:14:52;;;;;;;7.18;6.97;;;;;;;;;;4148938;28;20386;-66
2023/10/05 01:16:54;;;;;;;7.57;7.22;;;;;;;;;;4149002;28;20109;-66
2023/10/05 01:18:56;;;;;;;8.60;7.80;;;;;;;;;;4149195;28;20034;-66
2023/10/05 01:21:01;;;;;;;7.45;7.15;;;;;;;;;;4148868;28;20100;-66
2023/10/05 01:23:04;;;;;;;7.90;7.40;;;;;;;;;;4146930;28;20038;-66
2023/10/05 01:25:08;;;;;;;7.07;6.78;;;;;;;;;;4143878;28;20041;-66
2023/10/05 01:27:11;;;;;;;7.78;7.47;;;;;;;;;;4148738;28;20042;-66
2023/10/05 01:29:12;;;;;;;7.00;6.63;;;;;;;;;;4149027;28;20136;-66
2023/10/05 01:31:17;;;;;;;6.50;6.28;;;;;;;;;;4148748;28;20077;-66
2023/10/05 01:33:19;;;;;;;6.05;5.75;;;;;;;;;;4148697;28;20112;-66
2023/10/05 01:35:23;;;;;;;7.00;6.60;;;;;;;;;;4148460;28;20053;-66
2023/10/05 01:37:26;;;;;;;7.32;7.13;;;;;;;;;;4148684;28;20328;-66
2023/10/05 01:39:32;;;;;;;7.97;7.25;;;;;;;;;;4148302;28;20523;-66
2023/10/05 01:41:34;;;;;;;7.75;7.10;;;;;;;;;;4148403;28;20490;-66
2023/10/05 01:43:35;;;;;;;8.25;7.72;;;;;;;;;;4148550;28;20038;-66
2023/10/05 01:45:38;;;;;;;9.20;8.63;;;;;;;;;;4148809;28;20038;-66
2023/10/05 01:47:40;;;;;;;7.93;7.55;;;;;;;;;;4134693;28;20046;-66
2023/10/05 01:49:43;;;;;;;8.02;7.82;;;;;;;;;;4132250;28;20085;-67
2023/10/05 01:51:45;;;;;;;8.65;8.20;;;;;;;;;;4132251;28;20557;-66
2023/10/05 01:53:51;;;;;;;8.40;8.07;;;;;;;;;;4132291;28;20554;-66
2023/10/05 01:55:53;;;;;;;8.98;8.38;;;;;;;;;;4132147;28;20046;-66
2023/10/05 01:57:56;;;;;;;7.90;7.50;;;;;;;;;;4132147;28;20533;-66
2023/10/05 01:59:59;;;;;;;7.28;6.93;;;;;;;;;;4132143;28;20097;-66
2023/10/05 02:02:01;;;;;;;9.18;8.50;;;;;;;;;;4131945;28;20049;-66
2023/10/05 02:04:04;;;;;;;9.38;8.63;;;;;;;;;;4148162;28;20037;-67
2023/10/05 02:06:10;;;;;;;7.45;7.03;;;;;;;;;;4148205;28;20092;-67
2023/10/05 02:08:15;;;;;;;7.85;7.63;;;;;;;;;;4148269;28;20506;-67
2023/10/05 02:10:20;;;;;;;7.93;7.38;;;;;;;;;;4148254;28;20124;-66
2023/10/05 02:12:23;;;;;;;7.45;7.10;;;;;;;;;;4147060;28;20048;-67
2023/10/05 02:14:24;;;;;;;8.18;7.55;;;;;;;;;;4148127;28;20498;-67
2023/10/05 02:16:27;;;;;;;8.35;7.97;;;;;;;;;;4148169;28;20042;-67
2023/10/05 02:18:33;;;;;;;9.45;9.05;;;;;;;;;;4148358;28;20061;-66
2023/10/05 02:20:38;;;;;;;8.15;7.40;;;;;;;;;;4148094;28;20442;-66
2023/10/05 02:22:44;;;;;;;8.50;8.10;;;;;;;;;;4147916;28;20034;-66
2023/10/05 02:24:46;;;;;;;8.68;7.95;;;;;;;;;;4147991;28;20046;-67
2023/10/05 02:28:59;;;;;;;9.27;8.65;;;;;;;;;;4147957;28;20037;-67
2023/10/05 02:31:02;;;;;;;7.70;7.32;;;;;;;;;;4147946;28;20387;-67
2023/10/05 02:33:09;;;;;;;8.95;8.65;;;;;;;;;;4147897;28;20042;-66
2023/10/05 02:35:24;;;;;;;9.55;9.10;;;;;;;;;;4147951;28;20038;-67
2023/10/05 02:37:28;;;;;;;7.93;7.53;;;;;;;;;;4143142;28;20113;-67
2023/10/05 02:39:34;;;;;;;9.50;9.00;;;;;;;;;;4131141;28;20443;-67
2023/10/05 02:41:39;;;;;;;8.80;8.48;;;;;;;;;;4131785;28;20046;-61
2023/10/05 02:43:41;;;;;;;9.25;9.05;;;;;;;;;;4131538;28;20065;-61
2023/10/05 02:45:44;;;;;;;10.20;9.43;;;;;;;;;;4131420;28;20096;-61
2023/10/05 02:47:48;;;;;;;8.82;8.55;;;;;;;;;;4131458;28;20101;-61
2023/10/05 02:49:50;;;;;;;9.02;8.65;;;;;;;;;;4131657;28;20557;-61
2023/10/05 02:51:54;;;;;;;9.20;8.85;;;;;;;;;;4131500;28;20541;-61
2023/10/05 02:54:04;;;;;;;9.63;9.30;;;;;;;;;;4131656;28;20042;-62
2023/10/05 02:56:29;;;;;;;8.20;8.00;;;;;;;;;;4157746;28;20440;-61
2023/10/05 02:58:31;;;;;;;7.82;7.57;;;;;;;;;;4162504;28;20045;-61
2023/10/05 03:00:35;;;;;;;8.43;7.93;;;;;;;;;;4153775;28;20468;-61
2023/10/05 03:02:45;;;;;;;8.43;8.13;;;;;;;;;;4155626;28;20350;-61
2023/10/05 03:04:48;;;;;;;10.00;9.70;;;;;;;;;;4147819;28;20089;-62
2023/10/05 03:06:52;;;;;;;9.38;8.77;;;;;;;;;;4147777;28;20053;-61
2023/10/05 03:09:01;;;;;;;9.65;9.25;;;;;;;;;;4147756;28;20375;-61
2023/10/05 03:11:06;;;;;;;10.57;9.77;;;;;;;;;;4147457;28;20045;-61
2023/10/05 03:13:11;;;;;;;10.85;10.27;;;;;;;;;;4147841;28;20050;-60
2023/10/05 03:15:13;;;;;;;9.80;9.40;;;;;;;;;;4147470;28;20042;-60
2023/10/05 03:17:19;;;;;;;10.45;10.02;;;;;;;;;;4147348;28;20042;-61
2023/10/05 03:19:21;;;;;;;10.32;9.73;;;;;;;;;;4147683;28;20110;-61
2023/10/05 03:21:23;;;;;;;10.25;9.48;;;;;;;;;;4147604;28;20038;-61
2023/10/05 03:23:26;;;;;;;9.30;8.90;;;;;;;;;;4146229;28;20038;-62
2023/10/05 03:25:28;;;;;;;9.95;9.40;;;;;;;;;;4147297;28;20049;-61
2023/10/05 03:27:30;;;;;;;10.95;10.20;;;;;;;;;;4147428;28;20053;-61
2023/10/05 03:29:35;;;;;;;10.15;9.82;;;;;;;;;;4147490;28;20046;-62
2023/10/05 03:31:53;;;;;;;10.00;9.48;;;;;;;;;;4147421;28;20046;-61
2023/10/05 03:33:56;;;;;;;10.27;9.52;;;;;;;;;;4143041;28;20056;-61
2023/10/05 03:36:00;;;;;;;;;;;;;;;;;;4150481;28;20058;-61
2023/10/05 03:38:04;;;;;;;9.80;9.32;;;;;;;;;;4150384;28;20293;-62
2023/10/05 03:40:27;;;;;;;11.43;10.38;;;;;;;;;;4150184;28;20033;-62
2023/10/05 03:42:29;;;;;;;10.38;9.80;;;;;;;;;;4150535;28;20069;-60
2023/10/05 03:44:31;;;;;;;12.53;11.37;;;;;;;;;;4150374;28;20729;-61
2023/10/05 03:46:36;;;;;;;11.65;11.10;;;;;;;;;;4150222;28;20042;-61
2023/10/05 03:48:42;;;;;;;10.98;10.55;;;;;;;;;;4150393;28;20399;-60
2023/10/05 03:50:43;;;;;;;10.63;10.18;;;;;;;;;;4150185;28;20048;-61
2023/10/05 03:52:46;;;;;;;12.37;11.33;;;;;;;;;;4150435;28;20064;-61
2023/10/05 03:54:47;;;;;;;11.77;11.15;;;;;;;;;;4151286;28;20281;-61
2023/10/05 03:56:50;;;;;;;11.13;10.40;;;;;;;;;;4150383;28;20038;-61
2023/10/05 03:58:52;;;;;;;12.13;11.02;;;;;;;;;;4149914;28;20057;-61
2023/10/05 04:00:54;;;;;;;11.20;10.70;;;;;;;;;;4150172;28;20034;-61
2023/10/05 04:02:56;;;;;;;11.55;10.80;;;;;;;;;;4150017;28;20046;-61
2023/10/05 04:04:59;;;;;;;12.45;11.55;;;;;;;;;;4150421;28;20674;-61
2023/10/05 04:07:04;;;;;;;11.77;11.07;;;;;;;;;;4148825;28;20088;-61
2023/10/05 04:09:11;;;;;;;12.40;11.20;;;;;;;;;;4150134;28;20383;-61
2023/10/05 04:11:13;;;;;;;12.07;11.15;;;;;;;;;;4149994;28;20085;-61
2023/10/05 04:13:16;;;;;;;11.25;10.50;;;;;;;;;;4145354;28;20042;-61
2023/10/05 04:15:20;;;;;;;11.55;10.75;;;;;;;;;;4150163;28;20569;-61
2023/10/05 04:17:22;;;;;;;11.98;11.38;;;;;;;;;;4148465;28;20045;-60
2023/10/05 04:19:24;;;;;;;11.13;10.17;;;;;;;;;;4150182;28;20034;-61
2023/10/05 04:21:26;;;;;;;10.00;9.50;;;;;;;;;;4149926;28;20049;-61
2023/10/05 04:23:28;;;;;;;10.52;9.93;;;;;;;;;;4149824;28;20053;-61
2023/10/05 04:25:29;;;;;;;11.05;10.52;;;;;;;;;;4149916;28;20053;-61
2023/10/05 04:27:31;;;;;;;10.55;9.55;;;;;;;;;;4149820;28;20045;-61
2023/10/05 04:29:33;;;;;;;11.73;11.13;;;;;;;;;;4148295;28;20040;-61
2023/10/05 04:31:37;;;;;;;11.02;9.93;;;;;;;;;;4133692;28;20038;-61
2023/10/05 04:33:42;;;;;;;10.07;9.57;;;;;;;;;;4133536;28;20044;-61
2023/10/05 04:35:45;;;;;;;10.88;10.05;;;;;;;;;;4133494;28;20097;-61
2023/10/05 04:37:49;;;;;;;11.23;10.57;;;;;;;;;;4133356;28;20400;-62
2023/10/05 04:39:51;;;;;;;10.95;10.32;;;;;;;;;;4146950;28;20044;-62
2023/10/05 04:41:55;;;;;;;10.25;9.85;;;;;;;;;;4163111;28;20034;-62
2023/10/05 04:43:57;;;;;;;10.20;9.50;;;;;;;;;;4149332;28;20042;-61
2023/10/05 04:46:04;;;;;;;10.98;10.05;;;;;;;;;;4148961;28;20391;-62
2023/10/05 04:48:07;;;;;;;12.73;10.88;;;;;;;;;;4151743;28;20054;-61
2023/10/05 04:50:13;;;;;;;10.85;10.13;;;;;;;;;;4154975;28;20867;-60
2023/10/05 04:52:19;;;;;;;10.63;10.02;;;;;;;;;;4149404;28;20108;-62
2023/10/05 04:54:25;;;;;;;10.68;10.20;;;;;;;;;;4134790;28;20085;-61
2023/10/05 04:58:53;;;;;;;11.02;10.52;;;;;;;;;;4147661;28;20434;-60
2023/10/05 05:05:40;;;;;;;11.65;11.05;;;;;;;;;;4145572;28;20498;-62
2023/10/05 05:07:42;;;;;;;11.98;11.32;;;;;;;;;;4149331;28;20046;-61
2023/10/05 05:09:44;;;;;;;12.00;11.23;;;;;;;;;;4149130;28;20042;-61
2023/10/05 05:11:47;;;;;;;13.18;12.30;;;;;;;;;;4149180;28;20053;-60
2023/10/05 05:13:49;;;;;;;11.75;11.02;;;;;;;;;;4149330;28;20042;-62
2023/10/05 05:15:50;;;;;;;13.98;12.82;;;;;;;;;;4149172;28;20048;-61
2023/10/05 05:17:52;;;;;;;13.48;12.73;;;;;;;;;;4149212;28;20050;-61
2023/10/05 05:19:55;;;;;;;13.75;12.75;;;;;;;;;;4148979;28;20044;-60
2023/10/05 05:21:59;;;;;;;14.07;13.20;;;;;;;;;;4149094;28;20084;-61
2023/10/05 05:24:01;;;;;;;12.43;11.52;;;;;;;;;;4149287;28;20038;-64
2023/10/05 05:26:09;;;;;;;13.70;13.00;;;;;;;;;;4143883;28;20050;-64
2023/10/05 05:28:11;;;;;;;12.75;11.95;;;;;;;;;;4148975;28;20050;-63
2023/10/05 05:30:24;;;;;;;12.30;11.60;;;;;;;;;;4142835;28;20084;-63
2023/10/05 05:32:26;;;;;;;13.20;12.23;;;;;;;;;;4146858;28;20096;-63
2023/10/05 05:34:28;;;;;;;13.00;12.30;;;;;;;;;;4139702;28;20097;-63
2023/10/05 05:36:29;;;;;;;14.23;13.40;;;;;;;;;;4146832;28;20437;-63
2023/10/05 05:38:31;;;;;;;12.13;11.53;;;;;;;;;;4148459;28;20395;-63
2023/10/05 05:40:36;;;;;;;12.90;12.25;;;;;;;;;;4149086;28;20060;-63
2023/10/05 05:42:39;;;;;;;12.80;12.00;;;;;;;;;;4143300;28;20065;-64
2023/10/05 05:44:41;;;;;;;12.45;11.80;;;;;;;;;;4141201;28;20042;-63
2023/10/05 05:46:44;;;;;;;11.70;11.15;;;;;;;;;;4142138;28;20490;-63
2023/10/05 05:48:48;;;;;;;12.07;11.50;;;;;;;;;;4134797;28;20529;-64
2023/10/05 05:50:53;;;;;;;12.10;11.38;;;;;;;;;;4134871;28;20038;-63
2023/10/05 05:52:56;;;;;;;12.40;11.70;;;;;;;;;;4147104;28;20092;-64
2023/10/05 05:55:03;;;;;;;13.18;12.27;;;;;;;;;;4148157;28;20540;-63
2023/10/05 05:57:06;;;;;;;12.70;12.00;;;;;;;;;;4145977;28;20050;-64
2023/10/05 05:59:08;;;;;;;11.85;11.23;;;;;;;;;;4147669;28;20088;-63
2023/10/05 06:01:09;;;;;;;10.68;9.90;;;;;;;;;;4147887;28;20502;-63
2023/10/05 06:03:11;;;;;;;10.50;10.00;;;;;;;;;;4148139;28;20136;-63
2023/10/05 06:05:14;;;;;;;11.48;10.57;;;;;;;;;;4148528;28;20042;-62
2023/10/05 06:07:16;;;;;;;10.85;10.07;;;;;;;;;;4148339;28;20445;-64
2023/10/05 06:09:22;;;;;;;11.77;10.90;;;;;;;;;;4148242;28;20034;-64
2023/10/05 06:11:24;;;;;;;10.20;9.70;;;;;;;;;;4148275;28;20042;-64
2023/10/05 06:13:26;;;;;;;10.60;10.05;;;;;;;;;;4148493;28;20044;-63
2023/10/05 06:15:30;;;;;;;10.67;10.20;;;;;;;;;;4148155;28;20144;-63
2023/10/05 06:17:34;;;;;;;11.25;10.88;;;;;;;;;;4148190;28;20300;-64
2023/10/05 06:19:36;;;;;;;11.93;11.23;;;;;;;;;;4148153;28;20038;-63
2023/10/05 06:21:39;;;;;;;;;;;;;;;;;;4148569;28;20533;-64
2023/10/05 06:23:40;;;;;;;13.20;12.40;;;;;;;;;;4148151;28;20365;-63
2023/10/05 06:25:44;;;;;;;13.40;12.33;;;;;;;;;;4148104;28;20045;-63
2023/10/05 06:27:51;;;;;;;12.30;11.70;;;;;;;;;;4148210;28;20293;-62
2023/10/05 06:29:52;;;;;;;13.52;12.52;;;;;;;;;;4148095;28;20058;-63
2023/10/05 06:31:54;;;;;;;15.30;13.88;;;;;;;;;;4147991;28;20038;-63
2023/10/05 06:33:56;;;;;;;19.73;16.20;;;;;;;;;;4147967;28;20082;-63
2023/10/05 06:35:58;;;;;;;22.55;20.05;;;;;;;;;;4147924;28;20041;-63
2023/10/05 06:38:01;;;;;;;16.77;14.63;;;;;;;;;;4148034;28;20050;-63
2023/10/05 06:40:12;;;;;;;15.63;14.00;;;;;;;;;;4147734;28;20042;-63
2023/10/05 06:42:17;;;;;;;14.73;13.63;;;;;;;;;;4147954;28;20041;-63
2023/10/05 06:44:20;;;;;;;13.38;12.35;;;;;;;;;;4147673;28;20068;-63
2023/10/05 06:46:26;;;;;;;14.02;12.90;;;;;;;;;;4147567;28;20042;-62
2023/10/05 06:48:28;;;;;;;11.35;10.75;;;;;;;;;;4147756;28;20042;-63
2023/10/05 06:50:30;;;;;;;12.63;11.75;;;;;;;;;;4147776;28;20041;-63
2023/10/05 06:52:32;;;;;;;18.10;16.70;;;;;;;;;;4147848;28;20448;-63
2023/10/05 06:54:33;;;;;;;21.80;19.88;;;;;;;;;;4147887;28;20061;-62
2023/10/05 06:56:35;;;;;;;19.23;17.40;;;;;;;;;;4147776;28;20076;-63
2023/10/05 06:58:36;;;;;;;18.27;16.40;;;;;;;;;;4147598;28;20401;-63
2023/10/05 07:00:38;;;;;;;14.57;13.23;;;;;;;;;;4147622;28;20335;-64
2023/10/05 07:02:40;;;;;;;13.93;12.73;;;;;;;;;;4147386;28;20735;-63
2023/10/05 07:04:42;;;;;;;13.80;13.10;;;;;;;;;;4147605;28;20641;-62
2023/10/05 07:06:44;;;;;;;;;;;;;;;;;;4148308;28;20065;-62
2023/10/05 07:08:46;;;;;;;15.45;12.23;;;;;;;;;;4147518;28;20317;-63
2023/10/05 07:10:48;;;;;;;23.57;12.83;;;;;;;;;;4147499;28;20390;-63
2023/10/05 07:12:50;;;;;;;13.60;12.45;;;;;;;;;;4147801;28;20046;-63
2023/10/05 07:14:51;;;;;;;12.35;11.55;;;;;;;;;;4147550;28;20709;-63
2023/10/05 07:16:55;;;;;;;15.63;14.23;;;;;;;;;;4147384;28;20054;-62
2023/10/05 07:18:57;;;;;;;12.15;11.00;;;;;;;;;;4147311;28;20401;-64
2023/10/05 07:20:59;;;;;;;16.50;14.77;;;;;;;;;;4113100;28;20078;-63
2023/10/05 07:23:00;;;;;;;12.50;11.87;;;;;;;;;;4146183;28;20499;-64
2023/10/05 07:25:04;;;;;;;12.03;11.20;;;;;;;;;;4147469;28;20284;-63
2023/10/05 07:27:06;;;;;;;14.07;10.48;;;;;;;;;;4147493;28;20046;-62
2023/10/05 07:29:08;;;;;;;11.48;10.77;;;;;;;;;;4147648;28;20046;-62
2023/10/05 07:31:30;;;;;;;10.48;10.00;;;;;;;;;;4147461;28;20046;-63
2023/10/05 07:33:35;;;;;;;9.45;8.75;;;;;;;;;;4147393;28;20041;-62
2023/10/05 07:35:38;;;;;;;10.95;10.00;;;;;;;;;;4147181;28;20050;-63
2023/10/05 07:37:41;;;;;;;11.35;10.52;;;;;;;;;;4147299;28;20409;-63
2023/10/05 07:39:43;;;;;;;10.80;10.23;;;;;;;;;;4146957;28;20073;-62
2023/10/05 07:41:47;;;;;;;12.10;11.15;;;;;;;;;;4147298;28;20042;-63
2023/10/05 07:43:50;;;;;;;11.88;11.27;;;;;;;;;;4147248;28;20049;-62
2023/10/05 07:46:09;;;;;;;9.98;9.27;;;;;;;;;;4147073;28;20038;-63
2023/10/05 07:48:11;;;;;;;9.30;8.65;;;;;;;;;;4147417;28;20053;-63
2023/10/05 07:50:14;;;;;;;;;;;;;;;;;;4147620;28;20438;-62
2023/10/05 07:52:16;;;;;;;8.45;8.15;;;;;;;;;;4147467;28;19930;-62
2023/10/05 07:54:18;;;;;;;8.43;7.85;;;;;;;;;;4147243;28;20388;-63
2023/10/05 07:56:20;;;;;;;8.52;7.97;;;;;;;;;;4162590;28;20094;-63
2023/10/05 07:58:22;;;;;;;10.50;9.50;;;;;;;;;;4163473;28;20034;-63
2023/10/05 08:00:24;;;;;;;8.45;8.00;;;;;;;;;;4163157;28;20053;-62
2023/10/05 08:02:26;;;;;;;10.25;9.43;;;;;;;;;;4163348;28;20041;-61
2023/10/05 08:04:28;;;;;;;7.75;7.30;;;;;;;;;;4163459;28;20040;-63
2023/10/05 08:06:30;;;;;;;10.82;8.48;;;;;;;;;;4163526;28;20493;-63
2023/10/05 08:08:32;;;;;;;8.20;7.65;;;;;;;;;;4163471;28;20410;-64
2023/10/05 08:10:33;;;;;;;7.90;7.35;;;;;;;;;;4163397;28;20053;-63
2023/10/05 08:12:35;;;;;;;6.72;6.53;;;;;;;;;;4163414;28;20129;-62
2023/10/05 08:14:37;;;;;;;5.97;5.68;;;;;;;;;;4137463;28;20043;-62
2023/10/05 08:16:39;;;;;;;7.53;7.03;;;;;;;;;;4130909;28;20656;-62
2023/10/05 08:18:42;;;;;;;6.70;6.30;;;;;;;;;;4130889;28;20101;-63
2023/10/05 08:20:43;;;;;;;6.95;6.75;;;;;;;;;;4131787;28;20125;-64
2023/10/05 08:22:48;;;;;;;7.80;7.57;;;;;;;;;;4133799;28;20438;-62
2023/10/05 08:24:52;;;;;;;8.23;7.45;;;;;;;;;;4133754;28;20039;-63
2023/10/05 08:26:56;;;;;;;7.25;6.78;;;;;;;;;;4133798;28;20046;-63
2023/10/05 08:28:57;;;;;;;6.80;6.60;;;;;;;;;;4132426;28;20058;-63
2023/10/05 08:31:06;;;;;;;7.32;6.75;;;;;;;;;;4133670;28;20121;-62
2023/10/05 08:33:15;;;;;;;7.35;6.75;;;;;;;;;;4133660;28;20042;-63
2023/10/05 08:35:18;;;;;;;6.53;6.22;;;;;;;;;;4137954;28;20096;-63
2023/10/05 08:37:22;;;;;;;6.35;5.93;;;;;;;;;;4149664;28;20072;-63
2023/10/05 08:39:27;;;;;;;6.05;5.90;;;;;;;;;;4149136;28;20077;-63
2023/10/05 08:41:31;;;;;;;6.30;5.60;;;;;;;;;;4149612;28;20054;-62
2023/10/05 08:43:46;;;;;;;8.82;7.30;;;;;;;;;;4149649;28;20038;-63
2023/10/05 08:45:51;;;;;;;6.30;5.55;;;;;;;;;;4149616;28;20553;-62
2023/10/05 08:47:55;;;;;;;9.07;5.85;;;;;;;;;;4149576;28;20081;-62
2023/10/05 08:49:59;;;;;;;5.80;5.47;;;;;;;;;;4149458;28;20042;-63
2023/10/05 08:52:09;;;;;;;4.88;4.68;;;;;;;;;;4149404;28;20128;-63
2023/10/05 08:54:14;;;;;;;7.32;6.22;;;;;;;;;;4149553;28;20092;-62
2023/10/05 08:56:16;;;;;;;7.03;6.40;;;;;;;;;;4163967;28;20050;-63
2023/10/05 08:58:18;;;;;;;6.13;5.80;;;;;;;;;;4165645;28;20053;-63
2023/10/05 09:00:38;;;;;;;6.20;5.63;;;;;;;;;;4165832;28;20072;-63
2023/10/05 09:02:42;;;;;;;5.50;5.20;;;;;;;;;;4165534;28;20532;-63
2023/10/05 09:05:10;;;;;;;5.50;5.10;;;;;;;;;;4165718;28;20069;-63
2023/10/05 09:07:28;;;;;;;5.90;5.40;;;;;;;;;;4160912;28;20045;-63
2023/10/05 09:09:54;;;;;;;5.47;4.97;;;;;;;;;;4165428;28;20052;-63
2023/10/05 09:11:56;;;;;;;5.43;4.93;;;;;;;;;;4133396;28;20049;-62
2023/10/05 09:13:58;;;;;;;;;;;;;;;;;;4133441;28;20056;-64
2023/10/05 09:15:59;;;;;;;5.78;5.55;;;;;;;;;;4133021;28;19929;-62
2023/10/05 09:20:19;;;;;;;4.28;4.03;;;;;;;;;;4132815;28;20039;-63
2023/10/05 09:22:23;;;;;;;5.63;5.13;;;;;;;;;;4133022;28;20418;-63
2023/10/05 09:24:25;;;;;;;3.97;3.88;;;;;;;;;;4132788;28;20050;-63
2023/10/05 09:26:39;;;;;;;2.92;2.72;;;;;;;;;;4145371;28;20041;-62
2023/10/05 09:28:51;;;;;;;5.20;3.90;;;;;;;;;;4146672;28;20544;-64
2023/10/05 09:30:55;;;;;;;3.95;3.75;;;;;;;;;;4147920;28;20033;-63
2023/10/05 09:33:07;;;;;;;3.17;2.85;;;;;;;;;;4141482;28;20506;-64
2023/10/05 09:35:23;;;;;;;3.47;3.28;;;;;;;;;;4142564;28;20053;-64
2023/10/05 09:37:29;;;;;;;3.30;3.20;;;;;;;;;;4143089;28;20092;-63
2023/10/05 09:39:44;;;;;;;3.08;2.65;;;;;;;;;;4143850;28;20405;-64
2023/10/05 09:41:50;;;;;;;2.75;2.63;;;;;;;;;;4141922;28;20095;-64
2023/10/05 09:44:05;;;;;;;4.03;2.83;;;;;;;;;;4146522;28;20038;-64
2023/10/05 09:46:09;;;;;;;3.08;2.97;;;;;;;;;;4146427;28;20045;-65
2023/10/05 09:48:13;;;;;;;2.80;2.65;;;;;;;;;;4132648;28;20046;-63
2023/10/05 09:50:15;;;;;;;2.72;2.53;;;;;;;;;;4138467;28;20524;-66
2023/10/05 09:52:19;;;;;;;2.10;2.00;;;;;;;;;;4148105;28;20073;-64
2023/10/05 09:54:22;;;;;;;2.80;2.50;;;;;;;;;;4147822;28;20029;-63
2023/10/05 09:56:25;;;;;;;2.85;2.75;;;;;;;;;;4164402;28;20056;-63
2023/10/05 09:58:42;;;;;;;2.80;2.63;;;;;;;;;;4145905;28;20502;-63
2023/10/05 10:02:45;;;;;;;2.33;2.13;;;;;;;;;;4148285;28;20124;-63
2023/10/05 10:04:47;;;;;;;2.50;2.30;;;;;;;;;;4148258;28;20070;-66
2023/10/05 10:06:53;;;;;;;3.33;1.98;;;;;;;;;;4148609;28;20077;-63
2023/10/05 10:08:57;;;;;;;2.53;2.25;;;;;;;;;;4140533;28;20058;-64
2023/10/05 10:11:07;;;;;;;2.55;2.13;;;;;;;;;;4146470;28;20569;-64
2023/10/05 10:13:12;;;;;;;2.08;1.73;;;;;;;;;;4148312;28;20137;-63
2023/10/05 10:15:28;;;;;;;2.35;2.20;;;;;;;;;;4145295;28;20421;-64
2023/10/05 10:17:30;;;;;;;1.75;1.65;;;;;;;;;;4148310;28;20077;-63
2023/10/05 10:19:45;;;;;;;2.45;1.88;;;;;;;;;;4148268;28;20041;-64
2023/10/05 10:21:49;;;;;;;1.60;1.52;;;;;;;;;;4144702;28;20406;-64
2023/10/05 10:24:01;;;;;;;1.83;1.73;;;;;;;;;;4143093;28;20092;-63
2023/10/05 10:26:07;;;;;;;2.45;1.50;;;;;;;;;;4148333;28;20034;-64
2023/10/05 10:28:15;;;;;;;2.58;1.45;;;;;;;;;;4144929;28;20096;-66
2023/10/05 10:30:17;;;;;;;2.00;1.50;;;;;;;;;;4140158;28;20038;-66
2023/10/05 10:32:19;;;;;;;3.67;1.50;;;;;;;;;;4144225;28;20492;-63
2023/10/05 10:34:31;;;;;;;3.22;1.98;;;;;;;;;;4142389;28;20046;-63
2023/10/05 10:36:51;;;;;;;2.03;1.67;;;;;;;;;;4146218;28;20073;-64
2023/10/05 10:38:53;;;;;;;1.92;1.83;;;;;;;;;;4136353;28;20092;-64
2023/10/05 10:41:09;;;;;;;1.60;1.50;;;;;;;;;;4146940;28;20046;-63
2023/10/05 10:43:13;;;;;;;1.30;1.20;;;;;;;;;;4141909;28;20050;-63
2023/10/05 10:45:15;;;;;;;2.28;1.40;;;;;;;;;;4143160;28;20514;-63
2023/10/05 10:47:17;;;;;;;1.35;1.17;;;;;;;;;;4137341;28;20038;-64
2023/10/05 10:49:19;;;;;;;2.15;1.48;;;;;;;;;;4131450;28;20038;-63
2023/10/05 10:51:21;;;;;;;;;;;;;;;;;;4148261;28;20072;-65
2023/10/05 10:53:25;;;;;;;1.30;1.30;;;;;;;;;;4146382;28;20278;-65
2023/10/05 10:55:30;;;;;;;1.77;1.20;;;;;;;;;;4146302;28;20034;-63
2023/10/05 10:57:36;;;;;;;1.75;1.65;;;;;;;;;;4147973;28;20057;-63
2023/10/05 10:59:41;;;;;;;;;;;;;;;;;;4146998;28;20045;-64
2023/10/05 11:01:43;;;;;;;1.10;1.10;;;;;;;;;;4147109;28;19926;-63
2023/10/05 11:03:49;;;;;;;2.25;1.02;;;;;;;;;;4149339;28;20040;-64
2023/10/05 11:05:52;;;;;;;1.10;1.10;;;;;;;;;;4145095;28;20034;-64
2023/10/05 11:07:59;;;;;;;1.00;1.00;;;;;;;;;;4147752;28;20092;-64
2023/10/05 11:10:06;;;;;;;1.15;1.05;;;;;;;;;;4147669;28;20049;-63
2023/10/05 11:12:10;;;;;;;1.40;1.30;;;;;;;;;;4140900;28;20406;-63
2023/10/05 11:14:21;;;;;;;1.02;1.02;;;;;;;;;;4142563;28;20084;-63
2023/10/05 11:16:43;;;;;;;1.55;1.25;;;;;;;;;;4140344;28;20037;-63
2023/10/05 11:18:58;;;;;;;1.40;1.10;;;;;;;;;;4131305;28;20584;-63
2023/10/05 11:21:03;;;;;;;1.00;1.00;;;;;;;;;;4133897;28;20096;-64
2023/10/05 11:23:10;;;;;;;0.70;0.70;;;;;;;;;;4145601;28;20053;-63
2023/10/05 11:25:15;;;;;;;2.17;1.00;;;;;;;;;;4147432;28;20584;-63
2023/10/05 11:27:23;;;;;;;1.40;0.93;;;;;;;;;;4143298;28;20149;-64
2023/10/05 11:29:43;;;;;;;0.80;0.80;;;;;;;;;;4142476;28;20093;-64
2023/10/05 11:31:51;;;;;;;1.77;0.80;;;;;;;;;;4145224;28;20562;-64
2023/10/05 11:34:12;;;;;;;1.05;0.90;;;;;;;;;;4142910;28;20050;-63
2023/10/05 11:36:35;;;;;;;1.75;0.93;;;;;;;;;;4147001;28;20137;-64
2023/10/05 11:38:38;;;;;;;1.27;0.90;;;;;;;;;;4141099;28;20069;-63
2023/10/05 11:40:58;;;;;;;2.00;1.00;;;;;;;;;;4143111;28;20061;-64
2023/10/05 11:43:04;;;;;;;2.88;0.90;;;;;;;;;;4146544;28;20423;-63
2023/10/05 11:45:16;;;;;;;2.00;1.08;;;;;;;;;;4147348;28;20453;-64
2023/10/05 11:47:30;;;;;;;2.05;1.00;;;;;;;;;;4136071;28;20057;-64
2023/10/05 11:49:32;;;;;;;1.02;0.93;;;;;;;;;;4131181;28;20042;-64
2023/10/05 11:51:42;;;;;;;0.70;0.70;;;;;;;;;;4130914;28;20054;-64
2023/10/05 11:53:43;;;;;;;0.90;0.90;;;;;;;;;;4131073;28;20093;-64
2023/10/05 11:55:49;;;;;;;0.98;0.90;;;;;;;;;;4152760;28;20064;-64
2023/10/05 11:57:52;;;;;;;1.27;0.90;;;;;;;;;;4154558;28;20042;-65
2023/10/05 11:59:56;;;;;;;0.80;0.80;;;;;;;;;;4149635;28;20125;-64
2023/10/05 12:01:58;;;;;;;0.90;0.90;;;;;;;;;;4144439;28;20054;-64
2023/10/05 12:04:04;;;;;;;0.70;0.70;;;;;;;;;;4150049;28;20095;-64
2023/10/05 12:06:08;;;;;;;0.85;0.77;;;;;;;;;;4150252;28;20053;-65
2023/10/05 12:08:12;;;;;;;0.90;0.90;;;;;;;;;;4150390;28;20034;-64
2023/10/05 12:10:14;;;;;;;0.98;0.98;;;;;;;;;;4150138;28;20057;-64
2023/10/05 12:12:18;;;;;;;0.75;0.70;;;;;;;;;;4150259;28;20077;-64
2023/10/05 12:14:20;;;;;;;1.00;0.90;;;;;;;;;;4150100;28;20096;-64
2023/10/05 12:16:23;;;;;;;0.80;0.80;;;;;;;;;;4150164;28;20040;-64
2023/10/05 12:18:25;;;;;;;0.82;0.80;;;;;;;;;;4150057;28;20125;-64
2023/10/05 12:20:27;;;;;;;0.70;0.70;;;;;;;;;;4150023;28;20042;-64
2023/10/05 12:22:33;;;;;;;0.80;0.80;;;;;;;;;;4150039;28;20046;-64
2023/10/05 12:24:34;;;;;;;1.75;0.85;;;;;;;;;;4149845;28;20045;-64
2023/10/05 12:26:36;;;;;;;0.90;0.90;;;;;;;;;;4149944;28;20046;-63
2023/10/05 12:28:40;;;;;;;;;;;;;;;;;;4150311;28;20558;-64
2023/10/05 12:30:44;;;;;;;0.95;0.95;;;;;;;;;;4150105;28;19922;-64
2023/10/05 12:32:46;;;;;;;1.23;0.90;;;;;;;;;;4149861;28;20049;-64
2023/10/05 12:34:48;;;;;;;2.35;0.90;;;;;;;;;;4149747;28;20046;-64
2023/10/05 12:36:51;;;;;;;2.72;1.02;;;;;;;;;;4145020;28;20042;-64
2023/10/05 12:38:53;;;;;;;3.15;1.00;;;;;;;;;;4147369;28;20075;-65
2023/10/05 12:40:54;;;;;;;1.15;1.15;;;;;;;;;;4148314;28;20123;-64
2023/10/05 12:42:56;;;;;;;1.48;1.08;;;;;;;;;;4149766;28;20449;-64
2023/10/05 12:45:04;;;;;;;0.98;0.90;;;;;;;;;;4148371;28;20038;-65